EDW2A EDDS-EDDF
Flight info
| Callsign | EDW2A |
|---|---|
| Flight time | 0h 25m |
| Altitude | 22000 |
| Route | ETASA4B/25 ETASA T163 SPESA SPESA5B |
| Aircraft | A320/M-SDE3FGHIRWY/LB1 |
Departure
| Time | 2026-05-05 15:54 |
|---|---|
| Airport | Stuttgart Airport (EDDS) |
Arrival
| Time | 2026-05-05 16:19 |
|---|---|
| Airport | Frankfurt Main Airport (EDDF) |
| Time | Latitude | Longitude | Altitude | Speed | Heading |
|---|---|---|---|---|---|
| 2026-05-05 15:33 | 48.68914 | 9.19513 | 1315 ft | 0 kts | 344° |
| 2026-05-05 15:44 | 48.68894 | 9.19522 | 1314 ft | 4 kts | 344° |
| 2026-05-05 15:44 | 48.68869 | 9.19533 | 1312 ft | 4 kts | 344° |
| 2026-05-05 15:44 | 48.68847 | 9.19537 | 1311 ft | 4 kts | 26° |
| 2026-05-05 15:45 | 48.68831 | 9.19510 | 1311 ft | 4 kts | 72° |
| 2026-05-05 15:45 | 48.68827 | 9.19491 | 1312 ft | 1 kts | 74° |
| 2026-05-05 15:46 | 48.68836 | 9.19539 | 1311 ft | 13 kts | 74° |
| 2026-05-05 15:47 | 48.68868 | 9.19712 | 1307 ft | 19 kts | 73° |
| 2026-05-05 15:47 | 48.68891 | 9.19835 | 1304 ft | 16 kts | 82° |
| 2026-05-05 15:47 | 48.68823 | 9.19962 | 1296 ft | 16 kts | 72° |
| 2026-05-05 15:47 | 48.68861 | 9.20150 | 1292 ft | 21 kts | 73° |
| 2026-05-05 15:48 | 48.68905 | 9.20382 | 1286 ft | 26 kts | 73° |
| 2026-05-05 15:48 | 48.68957 | 9.20662 | 1279 ft | 29 kts | 74° |
| 2026-05-05 15:48 | 48.69012 | 9.20955 | 1272 ft | 28 kts | 74° |
| 2026-05-05 15:48 | 48.69068 | 9.21255 | 1267 ft | 31 kts | 73° |
| 2026-05-05 15:49 | 48.69127 | 9.21558 | 1262 ft | 30 kts | 74° |
| 2026-05-05 15:49 | 48.69184 | 9.21857 | 1258 ft | 30 kts | 70° |
| 2026-05-05 15:49 | 48.69230 | 9.22092 | 1245 ft | 24 kts | 75° |
| 2026-05-05 15:49 | 48.69277 | 9.22351 | 1239 ft | 27 kts | 74° |
| 2026-05-05 15:50 | 48.69334 | 9.22637 | 1233 ft | 30 kts | 73° |
| 2026-05-05 15:50 | 48.69388 | 9.22932 | 1227 ft | 30 kts | 75° |
| 2026-05-05 15:50 | 48.69442 | 9.23217 | 1221 ft | 29 kts | 73° |
| 2026-05-05 15:50 | 48.69498 | 9.23508 | 1215 ft | 29 kts | 74° |
| 2026-05-05 15:51 | 48.69555 | 9.23811 | 1209 ft | 30 kts | 73° |
| 2026-05-05 15:51 | 48.69608 | 9.24095 | 1202 ft | 21 kts | 78° |
| 2026-05-05 15:51 | 48.69589 | 9.24220 | 1197 ft | 12 kts | 116° |
| 2026-05-05 15:51 | 48.69558 | 9.24289 | 1194 ft | 5 kts | 134° |
| 2026-05-05 15:52 | 48.69542 | 9.24300 | 1193 ft | 1 kts | 167° |
| 2026-05-05 15:52 | 48.69534 | 9.24303 | 1192 ft | 3 kts | 163° |
| 2026-05-05 15:52 | 48.69458 | 9.24332 | 1190 ft | 15 kts | 169° |
| 2026-05-05 15:52 | 48.69384 | 9.24298 | 1191 ft | 2 kts | 250° |
| 2026-05-05 15:53 | 48.69380 | 9.24278 | 1192 ft | 10 kts | 253° |
| 2026-05-05 15:53 | 48.69289 | 9.23780 | 1202 ft | 88 kts | 254° |
| 2026-05-05 15:53 | 48.69059 | 9.22570 | 1226 ft | 149 kts | 254° |
| 2026-05-05 15:53 | 48.68742 | 9.20945 | 1689 ft | 159 kts | 255° |
| 2026-05-05 15:54 | 48.68448 | 9.19338 | 2431 ft | 159 kts | 255° |
| 2026-05-05 15:54 | 48.68130 | 9.17662 | 2856 ft | 177 kts | 253° |
| 2026-05-05 15:54 | 48.67766 | 9.15807 | 3155 ft | 201 kts | 253° |
| 2026-05-05 15:54 | 48.67346 | 9.13658 | 3588 ft | 225 kts | 253° |
| 2026-05-05 15:55 | 48.66991 | 9.11305 | 4382 ft | 234 kts | 268° |
| 2026-05-05 15:55 | 48.67487 | 9.08948 | 5287 ft | 245 kts | 303° |
| 2026-05-05 15:55 | 48.68655 | 9.07032 | 6265 ft | 252 kts | 318° |
| 2026-05-05 15:55 | 48.70296 | 9.05859 | 6965 ft | 275 kts | 338° |
| 2026-05-05 15:56 | 48.72160 | 9.04957 | 7707 ft | 286 kts | 338° |
| 2026-05-05 15:56 | 48.74072 | 9.04024 | 8571 ft | 292 kts | 338° |
| 2026-05-05 15:56 | 48.76013 | 9.03059 | 9489 ft | 296 kts | 338° |
| 2026-05-05 15:56 | 48.78001 | 9.02247 | 10186 ft | 311 kts | 349° |
| 2026-05-05 15:57 | 48.80254 | 9.02424 | 10507 ft | 339 kts | 7° |
| 2026-05-05 15:57 | 48.82658 | 9.03090 | 10792 ft | 362 kts | 8° |
| 2026-05-05 15:57 | 48.85167 | 9.03843 | 11412 ft | 372 kts | 9° |
| 2026-05-05 15:57 | 48.87713 | 9.04637 | 12197 ft | 376 kts | 9° |
| 2026-05-05 15:58 | 48.90295 | 9.05446 | 13003 ft | 381 kts | 9° |
| 2026-05-05 15:58 | 48.92901 | 9.06253 | 13780 ft | 384 kts | 9° |
| 2026-05-05 15:58 | 48.95538 | 9.07058 | 14474 ft | 388 kts | 10° |
| 2026-05-05 15:58 | 48.98202 | 9.07861 | 15151 ft | 393 kts | 10° |
| 2026-05-05 15:59 | 49.00904 | 9.08667 | 15887 ft | 397 kts | 10° |
| 2026-05-05 15:59 | 49.03601 | 9.09467 | 16598 ft | 402 kts | 10° |
| 2026-05-05 15:59 | 49.06354 | 9.10290 | 17345 ft | 406 kts | 11° |
| 2026-05-05 15:59 | 49.09141 | 9.11129 | 18140 ft | 411 kts | 11° |
| 2026-05-05 16:00 | 49.11970 | 9.11985 | 18791 ft | 416 kts | 11° |
| 2026-05-05 16:00 | 49.14824 | 9.12855 | 19399 ft | 420 kts | 11° |
| 2026-05-05 16:00 | 49.17699 | 9.13734 | 19738 ft | 423 kts | 11° |
| 2026-05-05 16:00 | 49.20581 | 9.14618 | 19832 ft | 423 kts | 11° |
| 2026-05-05 16:01 | 49.23468 | 9.15502 | 19851 ft | 422 kts | 11° |
| 2026-05-05 16:01 | 49.26346 | 9.16381 | 19837 ft | 422 kts | 11° |
| 2026-05-05 16:01 | 49.29190 | 9.17247 | 19847 ft | 422 kts | 11° |
| 2026-05-05 16:01 | 49.32068 | 9.18126 | 19839 ft | 422 kts | 11° |
| 2026-05-05 16:02 | 49.34942 | 9.19006 | 19843 ft | 422 kts | 11° |
| 2026-05-05 16:02 | 49.37828 | 9.19889 | 19838 ft | 422 kts | 11° |
| 2026-05-05 16:02 | 49.40704 | 9.20764 | 19847 ft | 421 kts | 12° |
| 2026-05-05 16:02 | 49.43575 | 9.21636 | 19842 ft | 421 kts | 11° |
| 2026-05-05 16:03 | 49.46453 | 9.22509 | 19846 ft | 422 kts | 11° |
| 2026-05-05 16:03 | 49.49333 | 9.23388 | 19846 ft | 422 kts | 12° |
| 2026-05-05 16:03 | 49.52175 | 9.24265 | 19836 ft | 422 kts | 12° |
| 2026-05-05 16:03 | 49.54973 | 9.25132 | 19837 ft | 422 kts | 12° |
| 2026-05-05 16:04 | 49.57728 | 9.25987 | 19848 ft | 422 kts | 12° |
| 2026-05-05 16:04 | 49.60720 | 9.26916 | 19840 ft | 422 kts | 12° |
| 2026-05-05 16:04 | 49.63588 | 9.27799 | 19844 ft | 421 kts | 12° |
| 2026-05-05 16:04 | 49.66465 | 9.28680 | 19685 ft | 422 kts | 12° |
| 2026-05-05 16:05 | 49.69358 | 9.29570 | 18976 ft | 425 kts | 12° |
| 2026-05-05 16:05 | 49.72259 | 9.30467 | 18379 ft | 424 kts | 12° |
| 2026-05-05 16:05 | 49.75145 | 9.31366 | 17803 ft | 422 kts | 12° |
| 2026-05-05 16:05 | 49.78022 | 9.32100 | 17235 ft | 418 kts | 3° |
| 2026-05-05 16:06 | 49.80866 | 9.31786 | 16721 ft | 415 kts | 347° |
| 2026-05-05 16:06 | 49.83569 | 9.30319 | 16232 ft | 410 kts | 332° |
| 2026-05-05 16:06 | 49.85899 | 9.27853 | 15714 ft | 405 kts | 316° |
| 2026-05-05 16:06 | 49.87717 | 9.24578 | 15178 ft | 399 kts | 301° |
| 2026-05-05 16:07 | 49.88920 | 9.20757 | 14655 ft | 392 kts | 286° |
| 2026-05-05 16:07 | 49.89704 | 9.16725 | 14100 ft | 389 kts | 284° |
| 2026-05-05 16:07 | 49.90465 | 9.12711 | 13567 ft | 387 kts | 284° |
| 2026-05-05 16:07 | 49.91218 | 9.08719 | 13053 ft | 383 kts | 284° |
| 2026-05-05 16:08 | 49.91962 | 9.04785 | 12513 ft | 379 kts | 284° |
| 2026-05-05 16:08 | 49.92717 | 9.00953 | 11957 ft | 376 kts | 289° |
| 2026-05-05 16:08 | 49.93955 | 8.97401 | 11417 ft | 374 kts | 305° |
| 2026-05-05 16:08 | 49.95760 | 8.94554 | 10897 ft | 373 kts | 322° |
| 2026-05-05 16:09 | 49.98021 | 8.92624 | 10266 ft | 370 kts | 342° |
| 2026-05-05 16:09 | 50.00549 | 8.92221 | 9354 ft | 364 kts | 8° |
| 2026-05-05 16:09 | 50.02882 | 8.93525 | 8368 ft | 355 kts | 34° |
| 2026-05-05 16:09 | 50.04545 | 8.96234 | 7439 ft | 345 kts | 63° |
| 2026-05-05 16:10 | 50.05196 | 8.99636 | 7173 ft | 314 kts | 82° |
| 2026-05-05 16:10 | 50.05525 | 9.02852 | 6998 ft | 290 kts | 80° |
| 2026-05-05 16:10 | 50.06029 | 9.05800 | 6488 ft | 282 kts | 73° |
| 2026-05-05 16:10 | 50.06695 | 9.08657 | 5838 ft | 280 kts | 70° |
| 2026-05-05 16:11 | 50.07506 | 9.11376 | 5324 ft | 272 kts | 56° |
| 2026-05-05 16:11 | 50.12035 | 9.14743 | 4145 ft | 254 kts | 348° |
| 2026-05-05 16:12 | 50.13662 | 9.13753 | 3983 ft | 243 kts | 321° |
| 2026-05-05 16:12 | 50.15403 | 9.09596 | 3985 ft | 223 kts | 276° |
| 2026-05-05 16:13 | 50.14314 | 9.02399 | 3996 ft | 249 kts | 248° |
| 2026-05-05 16:13 | 50.13710 | 8.99811 | 3997 ft | 258 kts | 248° |
| 2026-05-05 16:13 | 50.13093 | 8.97167 | 3997 ft | 260 kts | 249° |
| 2026-05-05 16:14 | 50.11880 | 8.91981 | 3995 ft | 247 kts | 248° |
| 2026-05-05 16:14 | 50.10747 | 8.87156 | 3996 ft | 228 kts | 248° |
| 2026-05-05 16:15 | 50.09669 | 8.82573 | 3582 ft | 217 kts | 249° |
| 2026-05-05 16:15 | 50.08706 | 8.78489 | 3082 ft | 186 kts | 249° |
| 2026-05-05 16:16 | 50.07920 | 8.75158 | 2615 ft | 144 kts | 249° |
| 2026-05-05 16:16 | 50.07456 | 8.72261 | 2152 ft | 134 kts | 257° |
| 2026-05-05 16:17 | 50.07074 | 8.69519 | 1908 ft | 136 kts | 254° |
| 2026-05-05 16:17 | 50.06807 | 8.68125 | 1609 ft | 133 kts | 252° |
| 2026-05-05 16:18 | 50.06200 | 8.65475 | 1181 ft | 130 kts | 247° |
| 2026-05-05 16:18 | 50.05885 | 8.64141 | 1116 ft | 132 kts | 246° |
| 2026-05-05 16:18 | 50.05189 | 8.61464 | 810 ft | 133 kts | 249° |
| 2026-05-05 16:19 | 50.04862 | 8.60122 | 652 ft | 136 kts | 248° |
| 2026-05-05 16:19 | 50.04526 | 8.58750 | 438 ft | 131 kts | 249° |
| 2026-05-05 16:19 | 50.04179 | 8.57097 | 364 ft | 28 kts | 277° |
| 2026-05-05 16:20 | 50.04210 | 8.56877 | 361 ft | 0 kts | 296° |
| 2026-05-05 16:22 | 50.04211 | 8.56874 | 363 ft | 0 kts | 297° |
| 2026-05-05 16:22 | 50.04212 | 8.56874 | 363 ft | 0 kts | 297° |
| 2026-05-05 16:23 | 50.04223 | 8.56842 | 366 ft | 11 kts | 301° |
| 2026-05-05 16:24 | 50.04257 | 8.56827 | 360 ft | 3 kts | 65° |
| 2026-05-05 16:24 | 50.04276 | 8.56898 | 362 ft | 13 kts | 69° |
| 2026-05-05 16:24 | 50.04358 | 8.57248 | 364 ft | 18 kts | 70° |
| 2026-05-05 16:25 | 50.04402 | 8.57433 | 364 ft | 19 kts | 69° |
| 2026-05-05 16:25 | 50.04489 | 8.57793 | 366 ft | 18 kts | 70° |
| 2026-05-05 16:25 | 50.04526 | 8.57948 | 364 ft | 7 kts | 68° |
| 2026-05-05 16:26 | 50.04527 | 8.57954 | 364 ft | 0 kts | 68° |
| 2026-05-05 16:26 | 50.04586 | 8.58200 | 365 ft | 20 kts | 70° |
| 2026-05-05 16:27 | 50.04616 | 8.58328 | 371 ft | 18 kts | 71° |
| 2026-05-05 16:27 | 50.04661 | 8.58517 | 371 ft | 19 kts | 69° |
| 2026-05-05 16:27 | 50.04710 | 8.58711 | 369 ft | 20 kts | 68° |
| 2026-05-05 16:27 | 50.04762 | 8.58915 | 374 ft | 21 kts | 70° |
| 2026-05-05 16:28 | 50.04827 | 8.59193 | 372 ft | 20 kts | 69° |
| 2026-05-05 16:28 | 50.04866 | 8.59330 | 371 ft | 20 kts | 58° |
| 2026-05-05 16:28 | 50.04999 | 8.59336 | 365 ft | 22 kts | 338° |
| 2026-05-05 16:28 | 50.05077 | 8.59202 | 361 ft | 12 kts | 242° |
| 2026-05-05 16:29 | 50.05035 | 8.59110 | 363 ft | 9 kts | 185° |
| 2026-05-05 16:29 | 50.05014 | 8.59129 | 364 ft | 0 kts | 142° |
| 2026-05-05 16:29 | 50.05013 | 8.59130 | 364 ft | 0 kts | 142° |
| 2026-05-05 16:29 | 50.05006 | 8.59135 | 363 ft | 2 kts | 152° |
| 2026-05-05 16:30 | 50.04985 | 8.59148 | 362 ft | 4 kts | 159° |
| 2026-05-05 16:30 | 50.04978 | 8.59151 | 362 ft | 0 kts | 160° |